createdAt,value
2019-03-19T00:00:18.930Z,4.40
2019-03-19T00:02:47.946Z,3.80
2019-03-19T00:05:16.738Z,3.30
2019-03-19T00:07:45.584Z,3.90
2019-03-19T00:10:14.893Z,3.27
2019-03-19T00:12:43.780Z,3.22
2019-03-19T00:15:12.825Z,3.12
2019-03-19T00:17:41.679Z,3.30
2019-03-19T00:20:12.308Z,8.18
2019-03-19T00:22:41.596Z,4.03
2019-03-19T00:25:10.657Z,3.67
2019-03-19T00:27:40.850Z,4.20
2019-03-19T00:30:14.092Z,3.12
2019-03-19T00:32:43.041Z,4.25
2019-03-19T00:35:16.158Z,3.87
2019-03-19T00:37:45.120Z,3.47
2019-03-19T00:40:14.729Z,3.72
2019-03-19T00:42:43.610Z,2.83
2019-03-19T00:45:15.499Z,3.65
2019-03-19T00:47:44.421Z,3.87
2019-03-19T00:50:13.764Z,3.02
2019-03-19T00:52:42.727Z,3.40
2019-03-19T00:55:11.811Z,3.85
2019-03-19T00:57:41.806Z,4.92
2019-03-19T01:00:12.302Z,3.70
2019-03-19T01:02:41.109Z,3.47
2019-03-19T01:05:10.540Z,3.12
2019-03-19T01:07:39.311Z,3.95
2019-03-19T01:10:17.210Z,3.35
2019-03-19T01:12:45.267Z,4.10
2019-03-19T01:15:14.611Z,4.42
2019-03-19T01:17:43.557Z,3.83
2019-03-19T01:20:13.267Z,4.17
2019-03-19T01:22:42.434Z,4.30
2019-03-19T01:25:11.413Z,4.50
2019-03-19T01:27:40.203Z,4.50
2019-03-19T01:30:10.227Z,4.75
2019-03-19T01:32:40.568Z,4.45
2019-03-19T01:35:09.404Z,4.35
2019-03-19T01:37:38.019Z,4.40
2019-03-19T01:40:10.765Z,4.40
2019-03-19T01:42:39.640Z,4.50
2019-03-19T01:45:10.140Z,3.85
2019-03-19T01:47:40.743Z,4.20
2019-03-19T01:50:10.994Z,4.22
2019-03-19T01:52:39.734Z,5.22
2019-03-19T01:55:12.192Z,4.67
2019-03-19T02:00:16.209Z,4.92
2019-03-19T02:02:44.910Z,4.35
2019-03-19T02:05:16.720Z,4.67
2019-03-19T02:07:45.760Z,4.17
2019-03-19T02:10:16.117Z,3.67
2019-03-19T02:12:45.020Z,4.50
2019-03-19T02:15:14.577Z,4.30
2019-03-19T02:17:43.360Z,4.45
2019-03-19T02:20:13.776Z,9.55
2019-03-19T02:22:42.830Z,3.40
2019-03-19T02:25:12.939Z,3.62
2019-03-19T02:27:42.045Z,3.42
2019-03-19T02:30:15.350Z,4.35
2019-03-19T02:32:44.777Z,3.67
2019-03-19T02:35:13.922Z,4.28
2019-03-19T02:37:42.829Z,4.00
2019-03-19T02:40:15.294Z,3.45
2019-03-19T02:45:12.734Z,3.80
2019-03-19T02:47:41.946Z,3.80
2019-03-19T02:50:14.395Z,3.50
2019-03-19T02:52:43.353Z,3.12
2019-03-19T02:55:12.686Z,3.35
2019-03-19T02:57:41.674Z,3.30
2019-03-19T03:00:12.218Z,3.75
2019-03-19T03:02:41.068Z,3.27
2019-03-19T03:05:11.208Z,3.47
2019-03-19T03:07:40.142Z,2.95
2019-03-19T03:10:11.500Z,2.85
2019-03-19T03:12:41.239Z,3.25
2019-03-19T03:15:12.600Z,3.40
2019-03-19T03:17:42.595Z,3.12
2019-03-19T03:20:12.416Z,3.25
2019-03-19T03:22:41.125Z,4.45
2019-03-19T03:25:11.573Z,3.42
2019-03-19T03:27:40.569Z,4.08
2019-03-19T03:30:16.619Z,3.80
2019-03-19T03:32:46.098Z,4.12
2019-03-19T03:35:15.115Z,3.65
2019-03-19T03:37:44.443Z,3.70
2019-03-19T03:40:16.797Z,3.40
2019-03-19T03:45:17.138Z,3.98
2019-03-19T03:47:46.199Z,4.12
2019-03-19T03:50:15.891Z,4.10
2019-03-19T03:52:45.005Z,3.80
2019-03-19T03:55:14.288Z,3.62
2019-03-19T03:57:43.053Z,4.08
2019-03-19T04:00:13.301Z,4.20
2019-03-19T04:02:44.634Z,4.62
2019-03-19T04:05:13.444Z,8.90
2019-03-19T04:07:42.281Z,6.28
2019-03-19T04:10:12.598Z,6.35
2019-03-19T04:12:41.619Z,5.55
2019-03-19T04:15:14.998Z,5.00
2019-03-19T04:17:43.935Z,5.10
2019-03-19T04:20:13.424Z,5.17
2019-03-19T04:22:42.452Z,4.35
2019-03-19T04:25:11.672Z,4.40
2019-03-19T04:27:41.120Z,4.70
2019-03-19T04:30:11.935Z,4.85
2019-03-19T04:32:40.692Z,5.17
2019-03-19T04:35:10.106Z,4.47
2019-03-19T04:37:39.130Z,5.08
2019-03-19T04:40:09.567Z,5.12
2019-03-19T04:42:38.680Z,6.42
2019-03-19T04:45:11.960Z,4.70
2019-03-19T04:47:40.958Z,5.65
2019-03-19T04:50:11.371Z,5.00
2019-03-19T04:52:40.282Z,6.78
2019-03-19T04:55:10.090Z,5.70
2019-03-19T04:57:40.301Z,5.58
2019-03-19T05:00:10.395Z,5.53
2019-03-19T05:02:39.729Z,5.55
2019-03-19T05:05:09.935Z,5.50
2019-03-19T05:07:38.890Z,5.03
2019-03-19T05:10:11.806Z,4.95
2019-03-19T05:12:40.848Z,6.42
2019-03-19T05:15:10.160Z,5.10
2019-03-19T05:17:39.170Z,5.75
2019-03-19T05:20:09.402Z,6.00
2019-03-19T05:22:43.017Z,6.97
2019-03-19T05:25:09.473Z,5.95
2019-03-19T05:27:38.113Z,7.50
2019-03-19T05:30:13.328Z,6.83
2019-03-19T05:32:42.271Z,6.87
2019-03-19T05:35:12.236Z,6.80
2019-03-19T05:37:41.319Z,6.35
2019-03-19T05:40:13.543Z,6.10
2019-03-19T05:42:42.291Z,6.67
2019-03-19T05:45:11.558Z,6.95
2019-03-19T05:47:42.249Z,5.78
2019-03-19T05:50:12.992Z,6.95
2019-03-19T05:52:41.952Z,6.75
2019-03-19T05:55:11.280Z,5.95
2019-03-19T05:57:48.856Z,6.28
2019-03-19T06:00:24.905Z,8.45
2019-03-19T06:02:56.808Z,8.45
2019-03-19T06:05:25.743Z,6.33
2019-03-19T06:07:54.944Z,6.28
2019-03-19T06:10:25.912Z,7.25
2019-03-19T06:12:54.495Z,7.20
2019-03-19T06:15:23.634Z,7.15
2019-03-19T06:17:52.725Z,6.20
2019-03-19T06:20:26.951Z,7.00
2019-03-19T06:22:59.045Z,6.22
2019-03-19T06:25:29.244Z,6.25
2019-03-19T06:28:00.739Z,5.53
2019-03-19T06:30:28.348Z,5.00
2019-03-19T06:33:00.115Z,6.65
2019-03-19T06:35:29.284Z,5.85
2019-03-19T06:37:57.979Z,5.90
2019-03-19T06:40:28.034Z,6.50
2019-03-19T06:42:57.377Z,6.42
2019-03-19T06:45:27.787Z,5.83
2019-03-19T06:47:58.322Z,6.37
2019-03-19T06:50:28.192Z,5.83
2019-03-19T06:52:57.460Z,5.83
2019-03-19T06:55:26.542Z,5.95
2019-03-19T06:57:55.484Z,6.25
2019-03-19T07:00:24.731Z,6.60
2019-03-19T07:02:53.695Z,5.30
2019-03-19T07:05:22.959Z,5.97
2019-03-19T07:07:52.020Z,5.75
2019-03-19T07:10:21.282Z,6.42
2019-03-19T07:12:51.726Z,6.03
2019-03-19T07:15:21.135Z,5.55
2019-03-19T07:17:49.845Z,5.47
2019-03-19T07:20:19.409Z,4.30
2019-03-19T07:22:51.266Z,5.03
2019-03-19T07:25:19.936Z,4.55
2019-03-19T07:27:48.687Z,4.28
2019-03-19T07:30:18.818Z,4.12
2019-03-19T07:32:48.064Z,4.90
2019-03-19T07:35:16.843Z,3.87
2019-03-19T07:37:45.753Z,5.00
2019-03-19T07:40:17.546Z,5.15
2019-03-19T07:42:48.691Z,4.50
2019-03-19T07:45:18.109Z,4.33
2019-03-19T07:47:49.560Z,7.15
2019-03-19T07:50:22.002Z,5.90
2019-03-19T07:55:32.024Z,4.03
2019-03-19T07:58:04.084Z,4.22
2019-03-19T08:00:32.721Z,4.30
2019-03-19T08:03:01.983Z,3.87
2019-03-19T08:05:33.473Z,4.40
2019-03-19T08:08:02.840Z,4.10
2019-03-19T08:10:39.204Z,4.28
2019-03-19T08:13:08.004Z,4.90
2019-03-19T08:15:38.141Z,5.70
2019-03-19T08:18:08.566Z,4.65
2019-03-19T08:20:37.582Z,4.55
2019-03-19T08:23:09.560Z,4.75
2019-03-19T08:25:38.430Z,4.25
2019-03-19T08:28:07.608Z,4.50
2019-03-19T08:30:36.340Z,4.45
2019-03-19T08:33:05.578Z,4.70
2019-03-19T08:35:35.421Z,5.10
2019-03-19T08:38:04.124Z,5.22
2019-03-19T08:40:33.183Z,4.70
2019-03-19T08:43:02.104Z,5.90
2019-03-19T08:45:30.847Z,4.92
2019-03-19T08:48:01.099Z,5.40
2019-03-19T08:50:29.689Z,4.90
2019-03-19T08:52:58.951Z,4.53
2019-03-19T08:55:27.924Z,4.60
2019-03-19T08:57:56.936Z,5.28
2019-03-19T09:00:28.720Z,4.53
2019-03-19T09:02:57.434Z,5.50
2019-03-19T09:05:26.385Z,4.83
2019-03-19T09:08:09.504Z,4.50
2019-03-19T09:10:43.764Z,4.25
2019-03-19T09:13:14.858Z,4.42
2019-03-19T09:15:44.362Z,4.55
2019-03-19T09:18:13.481Z,4.92
2019-03-19T09:20:42.706Z,4.97
2019-03-19T09:23:11.555Z,5.25
2019-03-19T09:25:41.031Z,4.42
2019-03-19T09:28:09.944Z,8.18
2019-03-19T09:30:38.757Z,6.12
2019-03-19T09:33:07.841Z,6.45
2019-03-19T09:35:36.605Z,4.65
2019-03-19T09:38:05.591Z,4.90
2019-03-19T09:40:34.542Z,4.28
2019-03-19T09:43:03.625Z,4.05
2019-03-19T09:45:35.827Z,3.85
2019-03-19T09:48:08.770Z,4.08
2019-03-19T09:50:37.506Z,3.20
2019-03-19T09:53:06.653Z,3.37
2019-03-19T09:55:36.688Z,3.30
2019-03-19T09:58:09.268Z,3.25
2019-03-19T10:00:46.773Z,3.33
2019-03-19T10:03:16.844Z,3.00
2019-03-19T10:05:51.555Z,3.17
2019-03-19T10:08:28.199Z,3.90
2019-03-19T10:10:56.913Z,3.67
2019-03-19T10:13:29.135Z,3.40
2019-03-19T10:18:29.184Z,3.75
2019-03-19T10:20:58.413Z,3.02
2019-03-19T10:23:27.342Z,3.10
2019-03-19T10:26:00.615Z,3.42
2019-03-19T10:28:30.769Z,3.22
2019-03-19T10:30:59.957Z,2.55
2019-03-19T10:33:28.812Z,2.67
2019-03-19T10:35:57.674Z,3.65
2019-03-19T10:38:26.932Z,3.10
2019-03-19T10:40:57.992Z,2.90
2019-03-19T10:43:28.398Z,3.25
2019-03-19T10:46:02.076Z,2.70
2019-03-19T10:48:31.884Z,3.20
2019-03-19T10:51:07.304Z,2.70
2019-03-19T10:53:36.466Z,3.80
2019-03-19T10:56:05.274Z,3.20
2019-03-19T10:58:34.431Z,2.35
2019-03-19T11:01:03.629Z,2.60
2019-03-19T11:03:32.373Z,2.40
2019-03-19T11:06:01.292Z,2.85
2019-03-19T11:08:30.658Z,2.70
2019-03-19T11:11:03.609Z,3.27
2019-03-19T11:13:46.245Z,2.70
2019-03-19T11:16:35.700Z,2.98
2019-03-19T11:19:07.413Z,2.35
2019-03-19T11:21:36.691Z,2.12
2019-03-19T11:24:05.880Z,2.20
2019-03-19T11:26:40.046Z,2.60
2019-03-19T11:29:24.492Z,1.72
2019-03-19T11:31:53.672Z,2.00
2019-03-19T11:34:22.613Z,2.42
2019-03-19T11:36:57.864Z,2.80
2019-03-19T11:39:22.140Z,1.77
2019-03-19T11:41:50.865Z,2.37
2019-03-19T11:44:19.913Z,2.17
2019-03-19T11:46:49.052Z,2.15
2019-03-19T11:49:18.019Z,2.10
2019-03-19T11:51:47.063Z,2.17
2019-03-19T11:54:18.721Z,2.20
2019-03-19T11:56:48.914Z,3.50
2019-03-19T11:59:17.491Z,2.15
2019-03-19T12:01:46.550Z,2.83
2019-03-19T12:04:19.585Z,2.90
2019-03-19T12:06:48.662Z,3.00
2019-03-19T12:09:17.469Z,2.60
2019-03-19T12:11:46.446Z,3.22
2019-03-19T12:14:15.380Z,4.03
2019-03-19T12:16:44.282Z,3.42
2019-03-19T12:19:13.862Z,3.45
2019-03-19T12:21:43.855Z,3.33
2019-03-19T12:24:12.834Z,2.75
2019-03-19T12:26:41.542Z,2.80
2019-03-19T12:29:10.655Z,3.80
2019-03-19T12:31:39.243Z,3.20
2019-03-19T12:34:09.668Z,4.70
2019-03-19T12:36:38.300Z,2.72
2019-03-19T12:39:09.672Z,3.92
2019-03-19T12:41:39.140Z,3.02
2019-03-19T12:44:07.970Z,2.60
2019-03-19T12:46:47.624Z,3.25
2019-03-19T12:49:16.570Z,3.15
2019-03-19T12:51:45.821Z,2.92
2019-03-19T12:54:17.558Z,3.08
2019-03-19T12:56:57.445Z,2.77
2019-03-19T12:59:31.112Z,3.10
2019-03-19T13:02:00.151Z,3.27
2019-03-19T13:04:34.033Z,3.33
2019-03-19T13:07:02.880Z,3.35
2019-03-19T13:09:31.541Z,2.87
2019-03-19T13:12:00.537Z,3.35
2019-03-19T13:14:29.361Z,3.10
2019-03-19T13:16:59.607Z,2.90
2019-03-19T13:19:29.691Z,3.40
2019-03-19T13:24:50.080Z,1.52
2019-03-19T13:27:28.954Z,2.45
2019-03-19T13:29:58.145Z,2.50
2019-03-19T13:32:35.712Z,1.55
2019-03-19T13:35:07.759Z,2.52
2019-03-19T13:37:37.064Z,12.28
2019-03-19T13:52:47.572Z,2.42
2019-03-19T13:58:19.825Z,2.05
2019-03-19T14:00:55.840Z,1.90
2019-03-19T14:03:26.900Z,3.00
2019-03-19T14:15:25.834Z,3.40
2019-03-19T14:27:58.601Z,2.60
2019-03-19T14:30:17.355Z,2.05
2019-03-19T14:32:51.441Z,2.58
2019-03-19T14:35:20.341Z,2.20
2019-03-19T14:37:49.226Z,2.00
2019-03-19T14:40:18.857Z,2.50
2019-03-19T14:42:52.745Z,2.00
2019-03-19T14:45:25.033Z,3.02
2019-03-19T14:50:23.305Z,12.58
2019-03-19T14:52:58.438Z,2.85
2019-03-19T14:55:24.629Z,2.80
2019-03-19T14:57:53.485Z,3.35
2019-03-19T15:00:25.424Z,2.70
2019-03-19T15:03:12.603Z,4.40
2019-03-19T15:05:39.173Z,3.70
2019-03-19T15:17:51.978Z,4.00
2019-03-19T15:23:49.929Z,5.47
2019-03-19T15:27:00.512Z,8.05
2019-03-19T15:29:16.222Z,5.10
2019-03-19T15:32:15.063Z,6.28
2019-03-19T15:34:57.911Z,5.40
2019-03-19T16:03:59.928Z,4.80
2019-03-19T16:31:23.723Z,10.30
2019-03-19T16:57:26.617Z,19.73
2019-03-19T17:01:04.483Z,19.07
2019-03-19T17:05:39.687Z,27.25
2019-03-19T17:08:32.403Z,16.75
2019-03-19T17:17:34.396Z,12.33
2019-03-19T17:20:07.180Z,6.33
2019-03-19T17:22:51.077Z,15.20
2019-03-19T17:25:24.410Z,11.48
2019-03-19T17:28:06.122Z,8.63
2019-03-19T17:34:10.413Z,21.73
2019-03-19T17:37:24.624Z,6.97
2019-03-19T17:43:18.851Z,6.65
2019-03-19T17:45:47.604Z,8.65
2019-03-19T17:48:27.262Z,6.20
2019-03-19T17:51:07.084Z,6.08
2019-03-19T18:06:43.163Z,9.13
2019-03-19T18:09:23.063Z,16.67
2019-03-19T18:12:05.051Z,17.57
2019-03-19T18:24:15.599Z,52.08
2019-03-19T18:26:40.536Z,45.88
2019-03-19T18:38:29.298Z,8.33
2019-03-19T18:40:58.678Z,18.35
2019-03-19T18:43:29.108Z,18.75
2019-03-19T18:45:59.450Z,48.23
2019-03-19T18:48:28.259Z,38.35
2019-03-19T18:51:01.011Z,30.57
2019-03-19T18:53:30.967Z,33.40
2019-03-19T18:56:01.069Z,15.70
2019-03-19T18:58:53.004Z,11.70
2019-03-19T19:04:35.875Z,19.35
2019-03-19T19:07:08.730Z,17.80
2019-03-19T19:13:20.842Z,16.00
2019-03-19T19:19:08.993Z,15.13
2019-03-19T19:21:39.064Z,11.00
2019-03-19T19:24:17.032Z,10.55
2019-03-19T19:27:00.151Z,12.37
2019-03-19T19:29:32.635Z,55.08
2019-03-19T19:32:13.413Z,45.30
2019-03-19T19:34:52.363Z,45.15
2019-03-19T19:40:46.171Z,9.63
2019-03-19T19:46:35.598Z,10.08
2019-03-19T19:49:33.504Z,9.63
2019-03-19T19:52:06.682Z,9.20
2019-03-19T20:06:07.026Z,18.85
2019-03-19T20:09:00.501Z,55.00
2019-03-19T20:12:10.262Z,32.00
2019-03-19T20:14:38.833Z,28.10
2019-03-19T20:17:19.449Z,24.05
2019-03-19T20:25:50.212Z,27.55
2019-03-19T20:31:28.631Z,10.45
2019-03-19T20:33:57.404Z,12.45
2019-03-19T20:36:33.745Z,13.72
2019-03-19T20:39:31.909Z,12.05
2019-03-19T20:41:46.632Z,15.60
2019-03-19T20:44:30.426Z,12.35
2019-03-19T20:46:59.272Z,11.38
2019-03-19T20:49:28.227Z,12.80
2019-03-19T20:51:57.100Z,11.43
2019-03-19T20:54:25.760Z,15.45
2019-03-19T20:56:54.491Z,10.45
2019-03-19T20:59:23.425Z,11.30
2019-03-19T21:01:52.165Z,11.05
2019-03-19T21:20:48.410Z,18.32
2019-03-19T21:23:17.101Z,19.30
2019-03-19T21:34:27.616Z,44.35
2019-03-19T21:36:56.693Z,18.77
2019-03-19T22:01:06.485Z,35.68
2019-03-19T22:03:36.480Z,63.87
2019-03-19T22:06:05.222Z,47.75
2019-03-19T22:08:34.094Z,40.30
2019-03-19T22:11:03.634Z,44.45
2019-03-19T22:13:34.175Z,59.17
2019-03-19T22:16:03.044Z,49.75
2019-03-19T22:18:32.199Z,37.53
2019-03-19T22:21:02.621Z,39.95
2019-03-19T22:25:37.227Z,57.93
2019-03-19T22:28:07.212Z,57.98
2019-03-19T22:30:37.025Z,43.63
2019-03-19T22:33:07.911Z,27.25
2019-03-19T22:35:37.980Z,26.48
2019-03-19T22:38:07.930Z,27.65
2019-03-19T22:40:37.843Z,27.65
2019-03-19T22:43:07.977Z,27.42
2019-03-19T22:45:38.237Z,27.82
2019-03-19T22:48:08.355Z,34.78
2019-03-19T22:50:38.225Z,34.67
2019-03-19T22:53:08.370Z,36.70
2019-03-19T22:55:38.485Z,33.73
2019-03-19T22:58:08.470Z,28.47
2019-03-19T23:00:40.111Z,24.60
2019-03-19T23:03:14.035Z,23.05
2019-03-19T23:05:44.196Z,22.80
2019-03-19T23:08:14.233Z,24.87
2019-03-19T23:10:44.095Z,21.97
2019-03-19T23:13:14.450Z,22.25
2019-03-19T23:15:44.478Z,22.70
2019-03-19T23:18:14.272Z,29.65
2019-03-19T23:20:44.420Z,26.17
2019-03-19T23:23:14.411Z,23.73
2019-03-19T23:25:44.627Z,25.02
2019-03-19T23:28:14.494Z,33.28
2019-03-19T23:30:44.606Z,31.07
2019-03-19T23:33:14.660Z,18.60
2019-03-19T23:35:44.992Z,21.05
2019-03-19T23:38:15.111Z,24.45
2019-03-19T23:40:45.294Z,22.25
2019-03-19T23:43:15.393Z,29.25
2019-03-19T23:45:45.600Z,25.02
2019-03-19T23:48:15.674Z,25.90
2019-03-19T23:50:45.625Z,27.20
2019-03-19T23:53:15.752Z,31.68
2019-03-19T23:55:45.963Z,29.57
2019-03-19T23:58:16.374Z,27.37
